createdAt,value
2018-12-16T00:01:20.646Z,32.37
2018-12-16T00:03:53.416Z,29.03
2018-12-16T00:06:25.348Z,25.77
2018-12-16T00:08:58.488Z,31.13
2018-12-16T00:11:30.537Z,27.60
2018-12-16T00:14:02.734Z,33.23
2018-12-16T00:16:34.689Z,27.10
2018-12-16T00:19:07.101Z,29.23
2018-12-16T00:21:39.263Z,28.83
2018-12-16T00:24:11.386Z,28.73
2018-12-16T00:26:54.431Z,36.10
2018-12-16T00:29:26.333Z,30.30
2018-12-16T00:31:58.243Z,32.07
2018-12-16T00:34:30.464Z,28.17
2018-12-16T00:37:02.239Z,32.10
2018-12-16T00:39:34.706Z,31.60
2018-12-16T00:42:06.590Z,31.50
2018-12-16T00:44:38.785Z,33.87
2018-12-16T00:47:11.121Z,30.17
2018-12-16T00:49:43.276Z,32.07
2018-12-16T00:52:16.020Z,32.73
2018-12-16T00:54:47.937Z,28.93
2018-12-16T00:57:20.215Z,30.13
2018-12-16T00:59:53.242Z,30.30
2018-12-16T01:02:31.372Z,26.73
2018-12-16T01:05:04.319Z,31.47
2018-12-16T01:07:36.973Z,30.60
2018-12-16T01:10:11.427Z,26.40
2018-12-16T01:12:43.855Z,26.80
2018-12-16T01:15:16.939Z,22.63
2018-12-16T01:17:49.831Z,28.10
2018-12-16T01:20:22.951Z,28.17
2018-12-16T01:22:55.696Z,25.33
2018-12-16T01:25:29.457Z,28.53
2018-12-16T01:28:02.018Z,24.17
2018-12-16T01:30:34.609Z,23.33
2018-12-16T01:33:06.936Z,30.50
2018-12-16T01:38:08.979Z,24.00
2018-12-16T01:40:41.131Z,24.17
2018-12-16T01:43:13.934Z,28.70
2018-12-16T01:45:46.108Z,28.67
2018-12-16T01:48:19.096Z,27.60
2018-12-16T01:50:51.771Z,27.50
2018-12-16T01:53:23.929Z,27.03
2018-12-16T01:55:56.055Z,25.73
2018-12-16T01:58:28.328Z,27.60
2018-12-16T02:01:00.335Z,31.33
2018-12-16T02:03:32.576Z,30.43
2018-12-16T02:06:04.756Z,31.43
2018-12-16T02:08:36.876Z,29.47
2018-12-16T02:11:09.039Z,26.77
2018-12-16T02:13:41.325Z,29.57
2018-12-16T02:16:14.104Z,28.00
2018-12-16T02:18:46.315Z,36.37
2018-12-16T02:21:18.537Z,31.30
2018-12-16T02:23:50.531Z,31.00
2018-12-16T02:26:22.467Z,33.90
2018-12-16T02:28:54.739Z,29.83
2018-12-16T02:31:26.952Z,40.47
2018-12-16T02:33:59.007Z,37.40
2018-12-16T02:36:31.288Z,37.17
2018-12-16T02:39:04.747Z,37.80
2018-12-16T02:41:36.860Z,37.67
2018-12-16T02:44:08.822Z,38.47
2018-12-16T02:46:40.793Z,35.00
2018-12-16T02:49:13.696Z,34.77
2018-12-16T02:51:43.862Z,26.60
2018-12-16T02:54:15.955Z,39.17
2018-12-16T02:56:48.044Z,33.43
2018-12-16T02:59:20.084Z,37.73
2018-12-16T03:01:52.361Z,35.20
2018-12-16T03:04:24.634Z,41.00
2018-12-16T03:06:56.864Z,28.00
2018-12-16T03:09:28.784Z,39.97
2018-12-16T03:12:01.049Z,42.07
2018-12-16T03:14:33.168Z,42.23
2018-12-16T03:17:05.178Z,41.70
2018-12-16T03:19:37.276Z,35.67
2018-12-16T03:22:09.456Z,42.50
2018-12-16T03:24:41.653Z,46.40
2018-12-16T03:27:13.987Z,50.57
2018-12-16T03:29:46.153Z,41.30
2018-12-16T03:32:18.978Z,47.43
2018-12-16T03:34:50.859Z,38.67
2018-12-16T03:37:25.231Z,43.60
2018-12-16T03:39:57.875Z,44.13
2018-12-16T03:42:29.944Z,44.20
2018-12-16T03:45:02.087Z,49.73
2018-12-16T03:47:35.044Z,49.23
2018-12-16T03:50:07.631Z,49.70
2018-12-16T03:52:39.603Z,44.20
2018-12-16T03:55:11.397Z,49.00
2018-12-16T03:57:44.523Z,42.90
2018-12-16T04:00:17.192Z,43.03
2018-12-16T04:02:49.302Z,43.37
2018-12-16T04:05:21.693Z,43.47
2018-12-16T04:07:53.703Z,39.57
2018-12-16T04:10:25.681Z,38.80
2018-12-16T04:12:57.614Z,36.87
2018-12-16T04:15:29.731Z,38.07
2018-12-16T04:18:01.930Z,39.90
2018-12-16T04:20:34.589Z,38.70
2018-12-16T04:23:06.822Z,38.50
2018-12-16T04:25:38.993Z,37.83
2018-12-16T04:28:11.470Z,38.97
2018-12-16T04:30:44.043Z,37.00
2018-12-16T04:33:16.302Z,40.00
2018-12-16T04:35:48.259Z,37.47
2018-12-16T04:38:20.580Z,38.87
2018-12-16T04:40:52.505Z,39.80
2018-12-16T04:43:24.675Z,32.17
2018-12-16T04:45:56.996Z,41.83
2018-12-16T04:48:29.219Z,33.57
2018-12-16T04:51:01.476Z,38.83
2018-12-16T04:53:36.859Z,35.97
2018-12-16T04:56:07.363Z,36.73
2018-12-16T04:58:39.397Z,34.70
2018-12-16T05:01:11.365Z,31.50
2018-12-16T05:03:43.595Z,39.93
2018-12-16T05:06:15.581Z,33.37
2018-12-16T05:08:47.708Z,34.40
2018-12-16T05:11:20.102Z,35.63
2018-12-16T05:13:52.095Z,34.97
2018-12-16T05:16:24.043Z,38.30
2018-12-16T05:18:56.081Z,35.00
2018-12-16T05:21:28.324Z,35.10
2018-12-16T05:24:01.080Z,38.07
2018-12-16T05:26:33.060Z,36.70
2018-12-16T05:29:05.316Z,38.37
2018-12-16T05:31:37.363Z,38.27
2018-12-16T05:34:09.604Z,39.13
2018-12-16T05:36:41.672Z,37.27
2018-12-16T05:39:13.636Z,39.73
2018-12-16T05:41:45.804Z,36.80
2018-12-16T05:44:17.827Z,34.43
2018-12-16T05:46:49.987Z,39.20
2018-12-16T05:49:22.811Z,33.33
2018-12-16T05:51:54.706Z,34.33
2018-12-16T05:54:27.067Z,29.37
2018-12-16T05:56:59.240Z,35.90
2018-12-16T05:59:31.560Z,31.73
2018-12-16T06:02:03.580Z,32.73
2018-12-16T06:04:35.803Z,29.83
2018-12-16T06:07:08.543Z,36.40
2018-12-16T06:09:40.504Z,34.07
2018-12-16T06:12:12.499Z,33.87
2018-12-16T06:14:44.504Z,36.10
2018-12-16T06:17:16.674Z,34.67
2018-12-16T06:19:48.925Z,25.57
2018-12-16T06:22:21.088Z,38.40
2018-12-16T06:24:53.887Z,34.60
2018-12-16T06:27:25.979Z,32.93
2018-12-16T06:29:58.161Z,38.23
2018-12-16T06:32:30.016Z,34.87
2018-12-16T06:35:02.069Z,37.50
2018-12-16T06:37:34.231Z,34.27
2018-12-16T06:40:06.627Z,35.93
2018-12-16T06:42:39.357Z,36.27
2018-12-16T06:45:11.262Z,34.03
2018-12-16T06:47:43.423Z,34.70
2018-12-16T06:50:15.744Z,36.43
2018-12-16T06:52:48.535Z,32.27
2018-12-16T06:55:20.912Z,35.70
2018-12-16T06:57:52.896Z,36.87
2018-12-16T07:00:25.224Z,37.60
2018-12-16T07:02:58.100Z,36.27
2018-12-16T07:05:30.343Z,30.23
2018-12-16T07:08:02.316Z,31.57
2018-12-16T07:10:34.570Z,32.63
2018-12-16T07:13:07.324Z,31.03
2018-12-16T07:15:39.621Z,33.10
2018-12-16T07:18:11.467Z,34.73
2018-12-16T07:20:43.848Z,35.53
2018-12-16T07:23:15.761Z,36.23
2018-12-16T07:25:47.797Z,33.20
2018-12-16T07:28:19.969Z,32.33
2018-12-16T07:30:52.260Z,34.27
2018-12-16T07:33:24.323Z,36.00
2018-12-16T07:35:56.354Z,34.47
2018-12-16T07:38:28.321Z,29.30
2018-12-16T07:43:30.001Z,38.43
2018-12-16T07:46:02.004Z,37.70
2018-12-16T07:48:34.097Z,31.90
2018-12-16T07:51:07.020Z,34.60
2018-12-16T07:53:38.903Z,39.30
2018-12-16T07:56:11.166Z,33.03
2018-12-16T07:58:43.559Z,33.73
2018-12-16T08:01:16.072Z,34.03
2018-12-16T08:03:48.784Z,37.30
2018-12-16T08:06:20.721Z,34.20
2018-12-16T08:08:52.672Z,31.90
2018-12-16T08:11:24.717Z,35.53
2018-12-16T08:13:56.777Z,37.13
2018-12-16T08:16:29.008Z,36.47
2018-12-16T08:19:06.860Z,32.00
2018-12-16T08:21:35.925Z,28.53
2018-12-16T08:24:08.725Z,34.03
2018-12-16T08:26:40.833Z,35.00
2018-12-16T08:29:13.157Z,31.00
2018-12-16T08:31:45.868Z,32.67
2018-12-16T08:34:18.073Z,35.13
2018-12-16T08:36:50.028Z,38.50
2018-12-16T08:39:21.845Z,32.60
2018-12-16T08:41:53.959Z,38.50
2018-12-16T08:46:54.127Z,38.00
2018-12-16T08:49:26.080Z,36.60
2018-12-16T08:51:57.862Z,43.30
2018-12-16T08:54:30.372Z,37.40
2018-12-16T08:57:02.888Z,38.00
2018-12-16T08:59:34.928Z,38.10
2018-12-16T09:02:06.937Z,35.70
2018-12-16T09:04:39.482Z,39.23
2018-12-16T09:07:12.357Z,40.93
2018-12-16T09:09:45.137Z,36.10
2018-12-16T09:12:17.516Z,33.37
2018-12-16T09:14:49.820Z,36.70
2018-12-16T09:17:21.572Z,34.17
2018-12-16T09:19:53.758Z,34.13
2018-12-16T09:22:25.656Z,35.70
2018-12-16T09:24:57.719Z,34.73
2018-12-16T09:27:29.879Z,40.07
2018-12-16T09:30:02.032Z,36.00
2018-12-16T09:32:34.197Z,37.10
2018-12-16T09:35:06.440Z,37.20
2018-12-16T09:37:38.426Z,38.20
2018-12-16T09:40:10.832Z,34.20
2018-12-16T09:42:42.827Z,39.10
2018-12-16T09:45:14.992Z,36.67
2018-12-16T09:50:16.047Z,39.60
2018-12-16T09:52:48.737Z,36.53
2018-12-16T09:55:20.752Z,35.97
2018-12-16T09:57:53.508Z,34.50
2018-12-16T10:00:26.026Z,36.20
2018-12-16T10:02:58.676Z,33.20
2018-12-16T10:05:30.560Z,39.00
2018-12-16T10:08:02.684Z,37.80
2018-12-16T10:10:35.110Z,32.77
2018-12-16T10:13:07.495Z,31.43
2018-12-16T10:15:39.777Z,31.37
2018-12-16T10:18:11.964Z,29.47
2018-12-16T10:20:44.266Z,35.73
2018-12-16T10:23:16.915Z,32.80
2018-12-16T10:25:47.098Z,33.83
2018-12-16T10:28:19.273Z,37.00
2018-12-16T10:30:51.530Z,31.77
2018-12-16T10:33:23.465Z,35.07
2018-12-16T10:35:55.623Z,32.23
2018-12-16T10:38:27.852Z,31.80
2018-12-16T10:40:59.703Z,37.80
2018-12-16T10:43:31.722Z,31.00
2018-12-16T10:46:03.916Z,33.13
2018-12-16T10:48:36.277Z,35.57
2018-12-16T10:53:37.976Z,31.60
2018-12-16T10:56:10.268Z,34.57
2018-12-16T10:58:42.984Z,29.70
2018-12-16T11:01:20.610Z,30.07
2018-12-16T11:03:53.383Z,34.27
2018-12-16T11:06:25.550Z,32.63
2018-12-16T11:08:58.433Z,34.93
2018-12-16T11:11:31.191Z,35.33
2018-12-16T11:14:03.159Z,36.43
2018-12-16T11:16:35.504Z,37.33
2018-12-16T11:19:07.304Z,34.83
2018-12-16T11:21:39.504Z,35.83
2018-12-16T11:24:11.672Z,36.77
2018-12-16T11:26:43.917Z,37.23
2018-12-16T11:29:16.687Z,34.27
2018-12-16T11:31:50.922Z,38.33
2018-12-16T11:34:23.525Z,35.70
2018-12-16T11:36:56.232Z,35.93
2018-12-16T11:39:28.918Z,39.47
2018-12-16T11:42:00.705Z,35.13
2018-12-16T11:44:33.014Z,38.63
2018-12-16T11:47:05.078Z,39.50
2018-12-16T11:49:37.079Z,36.90
2018-12-16T11:57:08.560Z,44.17
2018-12-16T11:59:40.525Z,39.07
2018-12-16T12:02:12.633Z,38.37
2018-12-16T12:04:44.620Z,39.20
2018-12-16T12:07:16.902Z,39.17
2018-12-16T12:09:49.727Z,37.87
2018-12-16T12:12:22.031Z,38.70
2018-12-16T12:14:54.704Z,39.60
2018-12-16T12:17:27.559Z,38.40
2018-12-16T12:20:00.525Z,37.83
2018-12-16T12:22:33.564Z,39.07
2018-12-16T12:25:04.879Z,35.17
2018-12-16T12:27:37.523Z,38.20
2018-12-16T12:30:11.760Z,35.47
2018-12-16T12:32:44.545Z,36.53
2018-12-16T12:35:17.444Z,37.30
2018-12-16T12:37:49.648Z,40.30
2018-12-16T12:40:20.632Z,42.87
2018-12-16T12:42:52.879Z,38.93
2018-12-16T12:45:25.764Z,43.30
2018-12-16T12:47:58.885Z,41.67
2018-12-16T12:50:32.014Z,38.13
2018-12-16T12:53:04.804Z,37.97
2018-12-16T12:55:36.996Z,38.70
2018-12-16T12:58:11.528Z,37.33
2018-12-16T13:00:44.143Z,38.53
2018-12-16T13:03:17.896Z,40.27
2018-12-16T13:05:51.285Z,42.77
2018-12-16T13:08:23.999Z,35.27
2018-12-16T13:10:56.079Z,40.90
2018-12-16T13:13:28.368Z,44.03
2018-12-16T13:16:01.205Z,36.47
2018-12-16T13:18:33.451Z,36.57
2018-12-16T13:21:06.519Z,38.73
2018-12-16T13:23:39.654Z,38.73
2018-12-16T13:26:12.488Z,34.07
2018-12-16T13:28:44.842Z,37.70
2018-12-16T13:31:18.059Z,39.50
2018-12-16T13:33:50.955Z,36.97
2018-12-16T13:36:25.574Z,36.23
2018-12-16T13:38:56.278Z,37.87
2018-12-16T13:41:29.589Z,36.90
2018-12-16T13:44:02.420Z,39.37
2018-12-16T13:46:35.528Z,37.87
2018-12-16T13:49:06.522Z,36.63
2018-12-16T13:51:39.582Z,43.17
2018-12-16T13:54:12.524Z,40.60
2018-12-16T13:56:45.490Z,40.97
2018-12-16T13:59:17.750Z,38.60
2018-12-16T14:01:50.308Z,38.47
2018-12-16T14:04:22.877Z,40.87
2018-12-16T14:06:54.272Z,38.77
2018-12-16T14:09:26.951Z,42.10
2018-12-16T14:12:00.263Z,38.30
2018-12-16T14:14:33.394Z,36.83
2018-12-16T14:17:06.595Z,37.80
2018-12-16T14:19:39.496Z,36.53
2018-12-16T14:22:11.745Z,36.53
2018-12-16T14:24:42.840Z,39.23
2018-12-16T14:27:15.907Z,37.83
2018-12-16T14:29:49.003Z,40.47
2018-12-16T14:32:22.032Z,33.90
2018-12-16T14:34:54.921Z,36.10
2018-12-16T14:37:27.800Z,39.23
2018-12-16T14:39:59.985Z,36.77
2018-12-16T14:42:32.464Z,37.17
2018-12-16T14:45:06.612Z,33.73
2018-12-16T14:47:39.499Z,35.50
2018-12-16T14:50:13.328Z,34.33
2018-12-16T14:52:45.787Z,34.27
2018-12-16T14:55:18.077Z,36.10
2018-12-16T14:57:50.965Z,33.10
2018-12-16T15:00:24.012Z,40.93
2018-12-16T15:02:57.002Z,33.90
2018-12-16T15:05:30.168Z,37.53
2018-12-16T15:08:04.151Z,33.17
2018-12-16T15:10:37.012Z,37.60
2018-12-16T15:13:09.876Z,34.80
2018-12-16T15:15:43.055Z,36.67
2018-12-16T15:18:16.354Z,33.73
2018-12-16T15:20:49.239Z,34.23
2018-12-16T15:23:22.517Z,38.27
2018-12-16T15:25:53.513Z,35.10
2018-12-16T15:28:26.600Z,34.20
2018-12-16T15:30:59.780Z,34.63
2018-12-16T15:33:33.056Z,33.80
2018-12-16T15:36:06.019Z,35.40
2018-12-16T15:38:39.268Z,35.50
2018-12-16T15:41:12.264Z,35.27
2018-12-16T15:43:45.289Z,36.10
2018-12-16T15:46:17.632Z,32.13
2018-12-16T15:48:50.672Z,33.53
2018-12-16T15:51:23.675Z,32.23
2018-12-16T15:53:56.902Z,35.37
2018-12-16T15:56:29.613Z,39.20
2018-12-16T15:59:02.958Z,35.90
2018-12-16T16:01:36.084Z,38.97
2018-12-16T16:04:08.957Z,37.67
2018-12-16T16:06:42.303Z,36.63
2018-12-16T16:09:15.022Z,34.73
2018-12-16T16:11:47.859Z,34.13
2018-12-16T16:14:21.012Z,34.10
2018-12-16T16:16:54.016Z,36.67
2018-12-16T16:19:27.104Z,36.57
2018-12-16T16:22:00.412Z,33.33
2018-12-16T16:24:33.464Z,36.70
2018-12-16T16:27:06.564Z,35.07
2018-12-16T16:29:39.445Z,31.57
2018-12-16T16:32:19.556Z,35.70
2018-12-16T16:34:52.552Z,34.17
2018-12-16T16:37:26.307Z,37.73
2018-12-16T16:39:58.632Z,36.33
2018-12-16T16:42:31.402Z,35.83
2018-12-16T16:45:05.052Z,34.20
2018-12-16T16:47:37.642Z,33.27
2018-12-16T16:50:10.156Z,30.33
2018-12-16T16:52:43.164Z,35.03
2018-12-16T16:55:16.415Z,32.57
2018-12-16T16:57:49.351Z,35.10
2018-12-16T17:00:21.785Z,32.67
2018-12-16T17:02:56.839Z,33.17
2018-12-16T17:05:29.786Z,30.67
2018-12-16T17:08:03.111Z,35.50
2018-12-16T17:10:35.979Z,31.40
2018-12-16T17:13:08.777Z,29.53
2018-12-16T17:15:42.690Z,32.20
2018-12-16T17:18:15.877Z,32.27
2018-12-16T17:20:49.004Z,31.40
2018-12-16T17:23:22.092Z,33.07
2018-12-16T17:25:55.754Z,34.57
2018-12-16T17:28:28.161Z,35.50
2018-12-16T17:31:01.193Z,29.90
2018-12-16T17:33:34.240Z,33.70
2018-12-16T17:36:06.650Z,35.53
2018-12-16T17:38:39.920Z,32.10
2018-12-16T17:41:13.122Z,29.37
2018-12-16T17:43:45.964Z,31.57
2018-12-16T17:46:18.941Z,30.97
2018-12-16T17:48:51.919Z,29.80
2018-12-16T17:51:24.972Z,34.50
2018-12-16T17:53:57.429Z,33.60
2018-12-16T17:56:28.339Z,31.90
2018-12-16T17:59:01.435Z,34.63
2018-12-16T18:01:35.533Z,34.03
2018-12-16T18:04:10.488Z,35.17
2018-12-16T18:06:45.032Z,33.00
2018-12-16T18:09:17.971Z,29.07
2018-12-16T18:11:50.949Z,30.63
2018-12-16T18:14:23.995Z,34.73
2018-12-16T18:16:58.520Z,33.57
2018-12-16T18:19:31.776Z,34.30
2018-12-16T18:22:05.195Z,32.40
2018-12-16T18:24:39.040Z,30.87
2018-12-16T18:27:12.355Z,30.53
2018-12-16T18:29:45.252Z,30.07
2018-12-16T18:32:18.401Z,32.37
2018-12-16T18:34:51.463Z,33.87
2018-12-16T18:37:24.659Z,31.63
2018-12-16T18:39:57.751Z,31.10
2018-12-16T18:42:30.652Z,34.17
2018-12-16T18:45:04.273Z,30.20
2018-12-16T18:47:37.053Z,31.27
2018-12-16T18:50:11.156Z,30.40
2018-12-16T18:52:43.909Z,30.87
2018-12-16T18:55:15.099Z,31.57
2018-12-16T18:57:48.223Z,28.90
2018-12-16T19:00:21.632Z,34.47
2018-12-16T19:02:54.424Z,33.57
2018-12-16T19:07:56.216Z,30.60
2018-12-16T19:10:29.357Z,29.93
2018-12-16T19:13:01.777Z,33.43
2018-12-16T19:15:32.839Z,28.70
2018-12-16T19:18:05.728Z,33.67
2018-12-16T19:20:38.468Z,31.43
2018-12-16T19:23:12.463Z,33.33
2018-12-16T19:25:45.852Z,32.37
2018-12-16T19:28:18.691Z,34.70
2018-12-16T19:30:52.033Z,30.07
2018-12-16T19:33:25.099Z,28.10
2018-12-16T19:35:56.588Z,27.50
2018-12-16T19:38:29.029Z,26.70
2018-12-16T19:41:02.136Z,32.53
2018-12-16T19:43:35.196Z,27.97
2018-12-16T19:46:06.392Z,31.00
2018-12-16T19:48:39.534Z,28.00
2018-12-16T19:51:11.879Z,29.67
2018-12-16T19:53:45.218Z,27.23
2018-12-16T19:56:17.608Z,26.13
2018-12-16T19:58:50.125Z,26.23
2018-12-16T20:01:23.042Z,27.80
2018-12-16T20:04:01.091Z,28.60
2018-12-16T20:06:38.252Z,25.70
2018-12-16T20:09:11.012Z,26.70
2018-12-16T20:11:44.004Z,29.27
2018-12-16T20:14:16.790Z,24.17
2018-12-16T20:16:49.959Z,24.87
2018-12-16T20:19:23.135Z,25.53
2018-12-16T20:21:56.017Z,20.83
2018-12-16T20:24:29.263Z,25.03
2018-12-16T20:27:02.220Z,28.80
2018-12-16T20:29:36.675Z,23.40
2018-12-16T20:32:09.525Z,21.77
2018-12-16T20:34:42.295Z,22.73
2018-12-16T20:37:15.503Z,20.87
2018-12-16T20:39:48.623Z,25.33
2018-12-16T20:42:21.104Z,20.60
2018-12-16T20:44:54.261Z,22.67
2018-12-16T20:47:27.083Z,22.80
2018-12-16T20:49:59.989Z,22.47
2018-12-16T20:52:33.070Z,22.90
2018-12-16T20:55:04.360Z,21.57
2018-12-16T20:57:36.910Z,22.70
2018-12-16T21:00:11.077Z,25.37
2018-12-16T21:02:44.263Z,24.87
2018-12-16T21:05:17.117Z,22.33
2018-12-16T21:07:50.147Z,21.03
2018-12-16T21:10:23.147Z,23.13
2018-12-16T21:13:00.570Z,23.37
2018-12-16T21:15:38.439Z,22.80
2018-12-16T21:18:16.290Z,19.73
2018-12-16T21:20:49.160Z,21.97
2018-12-16T21:23:22.107Z,24.03
2018-12-16T21:25:55.179Z,21.10
2018-12-16T21:28:28.241Z,21.07
2018-12-16T21:31:01.553Z,20.03
2018-12-16T21:33:34.664Z,23.23
2018-12-16T21:36:07.584Z,24.27
2018-12-16T21:38:40.624Z,21.00
2018-12-16T21:41:13.596Z,20.20
2018-12-16T21:43:46.707Z,23.00
2018-12-16T21:46:17.644Z,22.20
2018-12-16T21:48:50.614Z,20.13
2018-12-16T21:51:23.904Z,21.33
2018-12-16T21:53:56.947Z,25.53
2018-12-16T21:56:30.008Z,21.30
2018-12-16T21:59:02.675Z,18.53
2018-12-16T22:01:35.237Z,16.93
2018-12-16T22:04:08.248Z,20.67
2018-12-16T22:06:41.236Z,18.83
2018-12-16T22:09:13.464Z,20.20
2018-12-16T22:24:11.579Z,21.87
2018-12-16T22:26:45.947Z,18.80
2018-12-16T22:29:18.941Z,21.00
2018-12-16T22:31:50.999Z,20.13
2018-12-16T22:34:25.648Z,24.17
2018-12-16T22:36:58.255Z,21.57
2018-12-16T22:39:32.484Z,20.30
2018-12-16T22:42:03.168Z,19.60
2018-12-16T22:44:35.518Z,20.80
2018-12-16T22:47:07.436Z,19.57
2018-12-16T22:49:39.412Z,16.53
2018-12-16T22:52:11.597Z,20.17
2018-12-16T22:54:43.721Z,20.13
2018-12-16T22:57:16.706Z,20.20
2018-12-16T22:59:48.829Z,21.37
2018-12-16T23:02:20.823Z,18.33
2018-12-16T23:04:54.977Z,19.03
2018-12-16T23:07:27.720Z,21.47
2018-12-16T23:09:59.971Z,19.17
2018-12-16T23:12:34.277Z,19.07
2018-12-16T23:15:07.336Z,17.80
2018-12-16T23:17:40.145Z,20.83
2018-12-16T23:20:19.910Z,20.60
2018-12-16T23:25:21.355Z,20.60
2018-12-16T23:27:54.231Z,24.07
2018-12-16T23:30:26.960Z,23.00
2018-12-16T23:32:59.037Z,19.97
2018-12-16T23:35:31.384Z,19.70
2018-12-16T23:38:03.671Z,19.10
2018-12-16T23:40:35.648Z,21.27
2018-12-16T23:43:07.818Z,22.33
2018-12-16T23:45:39.892Z,19.97
2018-12-16T23:48:12.178Z,22.63
2018-12-16T23:50:44.257Z,21.23
2018-12-16T23:53:16.183Z,22.17
2018-12-16T23:55:48.315Z,21.43
2018-12-16T23:58:20.413Z,24.30
